Time;durP1;ratioP1;P1;durP2;ratioP2;P2;SDS_P1;SDS_P2;PMS_P1;PMS_P2;Temp;Humidity;BMP_temperature;BMP_pressure;BME280_temperature;BME280_humidity;BME280_pressure;Samples;Min_cycle;Max_cycle;Signal;HPM_P1;HPM_P2
2023/10/03 00:00:18;;;;;;;34.40;20.30;;;18.10;99.90;;;;;;5013885;28;20056;-59
2023/10/03 00:02:44;;;;;;;32.28;20.17;;;18.10;99.90;;;;;;5013860;28;20060;-61
2023/10/03 00:05:11;;;;;;;34.75;20.10;;;18.00;99.90;;;;;;5013615;28;20049;-61
2023/10/03 00:07:37;;;;;;;33.80;18.67;;;18.10;99.90;;;;;;5014411;28;20382;-59
2023/10/03 00:10:04;;;;;;;31.88;20.33;;;18.10;99.90;;;;;;5014081;28;20056;-60
2023/10/03 00:12:30;;;;;;;30.35;19.50;;;18.10;99.90;;;;;;5013836;28;20057;-61
2023/10/03 00:14:59;;;;;;;29.60;18.75;;;18.00;99.90;;;;;;5013309;28;20062;-59
2023/10/03 00:17:25;;;;;;;33.17;19.05;;;18.00;99.90;;;;;;5013502;28;20451;-61
2023/10/03 00:19:51;;;;;;;29.33;16.92;;;18.00;99.90;;;;;;5013406;28;20371;-61
2023/10/03 00:22:17;;;;;;;31.92;18.65;;;18.00;99.90;;;;;;5013537;28;20064;-61
2023/10/03 00:24:45;;;;;;;34.05;20.10;;;18.10;99.90;;;;;;5013557;28;20112;-60
2023/10/03 00:27:12;;;;;;;34.22;19.30;;;18.00;99.90;;;;;;5013403;28;20359;-61
2023/10/03 00:29:40;;;;;;;31.50;19.15;;;18.10;99.90;;;;;;5013467;28;20147;-61
2023/10/03 00:32:07;;;;;;;30.23;18.63;;;18.20;99.90;;;;;;5013405;28;20112;-61
2023/10/03 00:34:36;;;;;;;31.77;17.88;;;18.10;99.90;;;;;;5013493;28;20425;-61
2023/10/03 00:37:03;;;;;;;32.30;18.30;;;18.10;99.90;;;;;;5012880;28;20052;-61
2023/10/03 00:39:30;;;;;;;30.48;16.85;;;18.10;99.90;;;;;;5013087;28;20410;-60
2023/10/03 00:41:56;;;;;;;31.63;17.55;;;18.10;99.90;;;;;;5013091;28;20371;-60
2023/10/03 00:44:22;;;;;;;33.17;18.80;;;18.10;99.90;;;;;;5012757;28;20046;-61
2023/10/03 00:46:48;;;;;;;32.53;18.27;;;18.10;99.90;;;;;;5012778;28;20060;-61
2023/10/03 00:49:16;;;;;;;33.20;19.17;;;18.10;99.90;;;;;;5013775;28;20046;-60
2023/10/03 00:51:45;;;;;;;33.08;18.45;;;18.10;99.90;;;;;;5013049;28;20046;-62
2023/10/03 00:54:13;;;;;;;35.63;18.50;;;18.20;99.90;;;;;;5012964;28;20053;-59
2023/10/03 00:56:43;;;;;;;32.65;17.85;;;18.20;99.90;;;;;;5012435;28;20196;-62
2023/10/03 00:59:10;;;;;;;31.02;16.98;;;18.20;99.90;;;;;;5012780;28;20104;-61
2023/10/03 01:01:37;;;;;;;35.53;17.65;;;18.20;99.90;;;;;;5012803;28;20354;-61
2023/10/03 01:04:05;;;;;;;34.75;18.08;;;18.20;99.90;;;;;;5012785;28;20054;-61
2023/10/03 01:06:31;;;;;;;33.88;17.00;;;18.30;99.90;;;;;;5012515;28;20049;-61
2023/10/03 01:09:00;;;;;;;30.70;17.73;;;18.40;99.90;;;;;;5012811;28;20054;-59
2023/10/03 01:11:28;;;;;;;31.30;16.65;;;18.40;99.90;;;;;;5012521;28;20050;-61
2023/10/03 01:13:59;;;;;;;29.08;15.98;;;18.40;99.90;;;;;;4994749;28;20074;-62
2023/10/03 01:16:32;;;;;;;32.35;16.08;;;18.40;99.90;;;;;;5013056;28;20046;-59
2023/10/03 01:18:59;;;;;;;32.45;17.13;;;18.40;99.90;;;;;;5011748;28;20042;-61
2023/10/03 01:21:26;;;;;;;31.02;16.25;;;18.40;99.90;;;;;;5011988;28;20108;-59
2023/10/03 01:23:53;;;;;;;30.40;15.90;;;18.50;99.90;;;;;;5011607;28;20045;-61
2023/10/03 01:26:21;;;;;;;30.30;16.65;;;18.50;99.90;;;;;;5009041;28;20471;-61
2023/10/03 01:28:48;;;;;;;31.17;15.45;;;18.50;99.90;;;;;;5012231;28;20371;-61
2023/10/03 01:31:14;;;;;;;29.20;15.30;;;18.60;99.90;;;;;;5011775;28;20061;-61
2023/10/03 01:33:41;;;;;;;30.92;15.80;;;18.50;99.90;;;;;;5012387;28;20065;-61
2023/10/03 01:36:08;;;;;;;31.10;16.08;;;18.50;99.90;;;;;;5012062;28;20476;-61
2023/10/03 01:38:34;;;;;;;29.52;15.15;;;18.60;99.90;;;;;;5012145;28;20046;-61
2023/10/03 01:41:00;;;;;;;30.05;16.10;;;18.60;99.90;;;;;;5011242;28;20046;-61
2023/10/03 01:43:27;;;;;;;29.58;14.98;;;18.60;99.90;;;;;;4992710;28;20085;-61
2023/10/03 01:45:55;;;;;;;29.05;15.63;;;18.60;99.90;;;;;;4992250;28;20050;-60
2023/10/03 01:48:21;;;;;;;28.67;14.38;;;18.60;99.90;;;;;;4992537;28;20386;-61
2023/10/03 01:50:50;;;;;;;27.67;15.27;;;18.60;99.90;;;;;;4992406;28;20054;-61
2023/10/03 01:53:17;;;;;;;30.15;16.05;;;18.60;99.90;;;;;;4993863;28;20057;-61
2023/10/03 01:55:44;;;;;;;30.65;16.80;;;18.50;99.90;;;;;;5010537;28;20057;-61
2023/10/03 01:58:10;;;;;;;29.42;15.57;;;18.60;99.90;;;;;;5011695;28;20061;-61
2023/10/03 02:00:37;;;;;;;32.38;14.38;;;18.50;99.90;;;;;;5012010;28;20599;-61
2023/10/03 02:03:05;;;;;;;28.25;15.07;;;18.50;99.90;;;;;;4994402;28;20047;-60
2023/10/03 02:05:33;;;;;;;29.52;15.02;;;18.50;99.90;;;;;;4991956;28;20406;-60
2023/10/03 02:08:07;;;;;;;28.52;14.68;;;18.40;99.90;;;;;;4992220;28;20062;-61
2023/10/03 02:10:35;;;;;;;29.60;15.75;;;18.40;99.90;;;;;;4992051;28;20458;-60
2023/10/03 02:13:09;;;;;;;31.60;15.43;;;18.40;99.90;;;;;;5008822;28;20062;-61
2023/10/03 02:15:38;;;;;;;30.80;15.35;;;18.40;99.90;;;;;;5011710;28;20054;-59
2023/10/03 02:18:05;;;;;;;27.23;14.30;;;18.40;99.90;;;;;;5011890;28;20057;-62
2023/10/03 02:20:46;;;;;;;29.77;15.48;;;18.30;99.90;;;;;;5011590;28;20061;-60
2023/10/03 02:23:19;;;;;;;30.60;15.57;;;18.30;99.90;;;;;;4993048;28;20042;-61
2023/10/03 02:25:53;;;;;;;33.15;15.77;;;18.20;99.90;;;;;;4990964;28;20042;-61
2023/10/03 02:28:20;;;;;;;27.58;15.73;;;18.20;99.90;;;;;;4991977;28;20116;-61
2023/10/03 02:30:50;;;;;;;28.30;14.80;;;18.10;99.90;;;;;;4991565;28;20126;-61
2023/10/03 02:33:17;;;;;;;32.47;14.18;;;18.10;99.90;;;;;;5009905;28;20354;-61
2023/10/03 02:35:46;;;;;;;33.80;15.38;;;18.20;99.90;;;;;;5010483;28;20470;-60
2023/10/03 02:41:12;;;;;;;28.65;13.98;;;18.10;99.90;;;;;;4986448;28;20382;-61
2023/10/03 02:43:42;;;;;;;31.45;15.18;;;18.00;99.90;;;;;;4991608;28;20411;-62
2023/10/03 02:46:12;;;;;;;28.52;14.32;;;18.10;99.90;;;;;;4991185;28;20075;-62
2023/10/03 02:48:38;;;;;;;30.65;15.32;;;18.10;99.90;;;;;;4991519;28;20061;-61
2023/10/03 02:51:07;;;;;;;29.58;14.00;;;18.10;99.90;;;;;;4991840;28;20108;-60
2023/10/03 02:53:35;;;;;;;29.58;15.52;;;18.10;99.90;;;;;;4993503;28;20050;-61
2023/10/03 02:56:04;;;;;;;31.17;16.00;;;18.10;99.90;;;;;;5010350;28;20042;-60
2023/10/03 02:58:30;;;;;;;29.15;15.43;;;18.10;99.90;;;;;;5010706;28;20068;-61
2023/10/03 03:00:57;;;;;;;30.88;15.20;;;18.20;99.90;;;;;;5010340;28;20042;-61
2023/10/03 03:03:32;;;;;;;28.45;16.25;;;18.10;99.90;;;;;;5009751;28;20050;-61
2023/10/03 03:05:59;;;;;;;30.20;15.30;;;18.10;99.90;;;;;;5010258;28;20049;-61
2023/10/03 03:08:28;;;;;;;29.95;14.60;;;18.10;99.90;;;;;;5010489;28;20149;-61
2023/10/03 03:10:57;;;;;;;27.05;14.55;;;18.10;99.90;;;;;;5010878;28;20060;-61
2023/10/03 03:13:26;;;;;;;27.95;14.88;;;18.10;99.90;;;;;;5010096;28;20053;-61
2023/10/03 03:15:59;;;;;;;31.75;15.60;;;18.10;99.90;;;;;;5010501;28;20061;-61
2023/10/03 03:18:26;;;;;;;31.55;14.25;;;18.00;99.90;;;;;;5010513;28;20386;-60
2023/10/03 03:20:58;;;;;;;29.95;14.95;;;18.10;99.90;;;;;;5010611;28;20117;-60
2023/10/03 03:23:36;;;;;;;29.90;14.80;;;18.10;99.90;;;;;;5009872;28;20046;-60
2023/10/03 03:26:21;;;;;;;34.15;16.02;;;17.90;99.90;;;;;;5010004;28;20421;-61
2023/10/03 03:28:49;;;;;;;29.80;15.50;;;18.00;99.90;;;;;;5010382;28;20435;-61
2023/10/03 03:31:20;;;;;;;29.98;14.73;;;18.00;99.90;;;;;;4990965;28;20104;-61
2023/10/03 03:33:57;;;;;;;30.98;15.55;;;18.00;99.90;;;;;;4990904;28;20060;-61
2023/10/03 03:36:35;;;;;;;29.40;14.73;;;18.00;99.90;;;;;;4990694;28;20058;-60
2023/10/03 03:39:06;;;;;;;31.15;15.70;;;18.00;99.90;;;;;;4996094;28;20467;-61
2023/10/03 03:41:34;;;;;;;27.40;14.95;;;17.90;99.90;;;;;;4993116;28;20042;-61
2023/10/03 03:44:00;;;;;;;30.23;15.23;;;18.00;99.90;;;;;;5010769;28;20049;-61
2023/10/03 03:46:29;;;;;;;28.98;14.18;;;17.90;99.90;;;;;;5010009;28;20395;-60
2023/10/03 03:48:58;;;;;;;28.88;14.68;;;17.90;99.90;;;;;;5010229;28;20077;-61
2023/10/03 03:51:24;;;;;;;29.55;14.02;;;17.90;99.90;;;;;;4992615;28;20057;-61
2023/10/03 03:53:50;;;;;;;31.52;15.35;;;18.00;99.90;;;;;;5010408;28;20050;-61
2023/10/03 03:56:18;;;;;;;30.58;14.65;;;18.00;99.90;;;;;;5009740;28;20049;-59
2023/10/03 03:58:48;;;;;;;29.98;14.40;;;18.10;99.90;;;;;;5010016;28;20050;-60
2023/10/03 04:01:18;;;;;;;24.58;13.32;;;18.00;99.90;;;;;;5009983;28;20046;-60
2023/10/03 04:03:45;;;;;;;32.08;13.85;;;18.10;99.90;;;;;;5010296;28;20422;-61
2023/10/03 04:06:11;;;;;;;28.38;14.02;;;18.00;99.90;;;;;;4992077;28;20054;-60
2023/10/03 04:08:40;;;;;;;27.30;14.20;;;18.00;99.90;;;;;;5009221;28;20065;-60
2023/10/03 04:11:08;;;;;;;26.77;13.75;;;18.00;99.90;;;;;;5010059;28;20061;-60
2023/10/03 04:13:39;;;;;;;29.10;13.48;;;18.20;99.90;;;;;;5010040;28;20054;-60
2023/10/03 04:16:06;;;;;;;27.83;12.80;;;18.20;99.90;;;;;;4993376;28;20058;-60
2023/10/03 04:18:33;;;;;;;28.60;13.93;;;18.20;99.90;;;;;;5010698;28;20053;-61
2023/10/03 04:21:00;;;;;;;26.48;12.75;;;18.20;99.90;;;;;;4996642;28;20078;-61
2023/10/03 04:23:27;;;;;;;26.83;13.15;;;18.40;99.90;;;;;;5012627;28;20042;-61
2023/10/03 04:25:53;;;;;;;24.70;12.93;;;18.40;99.90;;;;;;5013468;28;20053;-61
2023/10/03 04:28:19;;;;;;;26.60;14.02;;;18.50;99.90;;;;;;5013824;28;20137;-60
2023/10/03 04:30:47;;;;;;;27.33;12.60;;;18.70;99.90;;;;;;5013664;28;20046;-60
2023/10/03 04:33:20;;;;;;;27.75;13.88;;;18.70;99.90;;;;;;5012894;28;20379;-60
2023/10/03 04:35:47;;;;;;;24.13;12.15;;;18.80;99.90;;;;;;5013153;28;20053;-61
2023/10/03 04:38:16;;;;;;;24.77;12.55;;;18.80;99.90;;;;;;5013276;28;20054;-60
2023/10/03 04:40:44;;;;;;;28.27;12.73;;;18.90;99.90;;;;;;5013050;28;20053;-60
2023/10/03 04:43:11;;;;;;;24.05;11.98;;;19.00;99.90;;;;;;5013216;28;20053;-60
2023/10/03 04:45:39;;;;;;;26.55;12.85;;;18.90;99.90;;;;;;5012303;28;20050;-59
2023/10/03 04:48:06;;;;;;;26.92;12.65;;;19.00;99.90;;;;;;5013027;28;20045;-61
2023/10/03 04:50:35;;;;;;;26.20;12.32;;;19.10;99.90;;;;;;5012786;28;20181;-61
2023/10/03 04:53:03;;;;;;;22.30;11.70;;;19.20;99.90;;;;;;4995677;28;20054;-60
2023/10/03 04:55:29;;;;;;;24.80;13.00;;;19.20;99.90;;;;;;5012611;28;20046;-60
2023/10/03 04:57:56;;;;;;;23.13;11.65;;;19.30;99.90;;;;;;5013018;28;20069;-61
2023/10/03 05:00:23;;;;;;;22.27;10.85;;;19.30;99.90;;;;;;5012350;28;20046;-60
2023/10/03 05:02:52;;;;;;;21.90;11.32;;;19.30;99.90;;;;;;5012146;28;20049;-60
2023/10/03 05:05:21;;;;;;;21.23;10.70;;;19.30;99.90;;;;;;5011528;28;20486;-60
2023/10/03 05:07:52;;;;;;;20.70;11.30;;;19.40;99.90;;;;;;5012644;28;20049;-59
2023/10/03 05:10:20;;;;;;;20.42;10.10;;;19.30;99.90;;;;;;5012988;28;20473;-60
2023/10/03 05:12:51;;;;;;;23.65;11.60;;;19.30;99.90;;;;;;5012531;28;20042;-59
2023/10/03 05:15:18;;;;;;;23.27;10.07;;;19.20;99.90;;;;;;5011589;28;20057;-60
2023/10/03 05:17:45;;;;;;;21.95;10.63;;;19.30;99.90;;;;;;5012501;28;20045;-60
2023/10/03 05:20:17;;;;;;;22.83;10.52;;;19.30;99.90;;;;;;5012313;28;20086;-60
2023/10/03 05:22:45;;;;;;;;;;;19.30;99.90;;;;;;5012860;28;20054;-59
2023/10/03 05:25:13;;;;;;;18.48;10.18;;;19.30;99.90;;;;;;5009760;28;20007;-60
2023/10/03 05:27:41;;;;;;;19.95;9.98;;;19.30;99.90;;;;;;5012380;28;20046;-62
2023/10/03 05:30:08;;;;;;;23.48;10.07;;;19.30;99.90;;;;;;5012550;28;20053;-61
2023/10/03 05:32:36;;;;;;;19.42;9.55;;;19.40;99.90;;;;;;4994997;28;20418;-61
2023/10/03 05:35:05;;;;;;;19.98;9.40;;;19.40;99.90;;;;;;5011537;28;20046;-62
2023/10/03 05:37:34;;;;;;;19.55;8.68;;;19.40;99.90;;;;;;5011745;28;20041;-60
2023/10/03 05:40:20;;;;;;;16.15;8.88;;;19.30;99.90;;;;;;5012066;28;20049;-61
2023/10/03 05:42:47;;;;;;;14.45;8.23;;;19.40;99.90;;;;;;5012288;28;20041;-61
2023/10/03 05:45:15;;;;;;;22.83;9.65;;;19.30;99.90;;;;;;5012466;28;20045;-60
2023/10/03 05:47:46;;;;;;;16.52;8.00;;;19.30;99.90;;;;;;4994713;28;20060;-59
2023/10/03 05:50:16;;;;;;;12.65;8.18;;;19.40;99.90;;;;;;5012563;28;20046;-58
2023/10/03 05:52:44;;;;;;;20.40;8.80;;;19.30;99.90;;;;;;5011113;28;20050;-61
2023/10/03 05:55:11;;;;;;;13.57;7.40;;;19.30;99.90;;;;;;5012037;28;20053;-61
2023/10/03 05:57:39;;;;;;;14.35;7.55;;;19.30;99.90;;;;;;5012496;28;20107;-59
2023/10/03 06:00:08;;;;;;;15.70;8.00;;;19.30;99.90;;;;;;5012001;28;20069;-62
2023/10/03 06:02:39;;;;;;;14.85;6.88;;;19.20;99.90;;;;;;5011250;28;20049;-62
2023/10/03 06:05:06;;;;;;;13.50;6.45;;;19.20;99.90;;;;;;4994658;28;20054;-63
2023/10/03 06:07:33;;;;;;;14.25;5.78;;;19.20;99.90;;;;;;5011713;28;20482;-61
2023/10/03 06:09:59;;;;;;;12.65;5.75;;;19.10;99.90;;;;;;5011892;28;20197;-61
2023/10/03 06:12:28;;;;;;;15.93;5.85;;;19.20;99.90;;;;;;5011061;28;20455;-60
2023/10/03 06:14:54;;;;;;;11.05;4.82;;;19.10;99.90;;;;;;5011806;28;20333;-60
2023/10/03 06:17:21;;;;;;;12.38;5.00;;;19.20;99.90;;;;;;5012072;28;20478;-61
2023/10/03 06:19:47;;;;;;;11.18;4.88;;;19.20;99.90;;;;;;5012049;28;20090;-62
2023/10/03 06:22:13;;;;;;;9.68;4.75;;;19.20;99.90;;;;;;5010666;28;20510;-61
2023/10/03 06:24:40;;;;;;;16.10;5.10;;;19.10;99.90;;;;;;5011816;28;20054;-61
2023/10/03 06:27:09;;;;;;;10.98;4.90;;;19.00;99.90;;;;;;4994368;28;20061;-60
2023/10/03 06:29:35;;;;;;;11.60;4.90;;;19.00;99.90;;;;;;5011503;28;20057;-61
2023/10/03 06:32:02;;;;;;;10.77;5.13;;;19.00;99.90;;;;;;5010690;28;20160;-61
2023/10/03 06:34:28;;;;;;;9.77;4.60;;;18.90;99.90;;;;;;5011428;28;20463;-60
2023/10/03 06:36:54;;;;;;;10.60;4.30;;;19.00;99.90;;;;;;5011617;28;20058;-60
2023/10/03 06:39:21;;;;;;;11.90;4.78;;;19.00;99.90;;;;;;4985620;28;20258;-61
2023/10/03 06:41:47;;;;;;;9.93;3.60;;;19.00;99.90;;;;;;4990425;28;20349;-61
2023/10/03 06:44:13;;;;;;;8.52;4.57;;;19.00;99.90;;;;;;4991963;28;20076;-60
2023/10/03 06:46:42;;;;;;;11.65;4.40;;;18.90;99.90;;;;;;4991740;28;20046;-62
2023/10/03 06:49:10;;;;;;;10.57;4.00;;;19.00;99.90;;;;;;4991768;28;20387;-62
2023/10/03 06:51:41;;;;;;;8.48;4.50;;;19.10;99.90;;;;;;4958432;28;20053;-61
2023/10/03 06:54:18;;;;;;;15.48;5.55;;;19.10;99.90;;;;;;4974281;28;20054;-62
2023/10/03 06:56:48;;;;;;;12.95;4.32;;;19.00;99.90;;;;;;4992011;28;20073;-61
2023/10/03 06:59:17;;;;;;;8.63;4.30;;;19.00;99.90;;;;;;4991538;28;20050;-62
2023/10/03 07:01:43;;;;;;;11.65;4.78;;;19.00;99.90;;;;;;4990867;28;20043;-60
2023/10/03 07:04:10;;;;;;;10.15;4.22;;;19.10;99.90;;;;;;4991486;28;20072;-62
2023/10/03 07:06:36;;;;;;;13.88;4.72;;;19.10;99.90;;;;;;4991906;28;20042;-61
2023/10/03 07:09:06;;;;;;;10.70;4.80;;;19.10;99.90;;;;;;4991546;28;20063;-62
2023/10/03 07:11:33;;;;;;;7.32;4.13;;;19.00;99.90;;;;;;4990489;28;20390;-62
2023/10/03 07:13:59;;;;;;;12.45;4.50;;;19.00;99.90;;;;;;4991247;28;20430;-62
2023/10/03 07:16:26;;;;;;;9.63;4.70;;;18.90;99.90;;;;;;4991520;28;20252;-60
2023/10/03 07:18:52;;;;;;;10.80;4.82;;;18.80;99.90;;;;;;4991285;28;20050;-62
2023/10/03 07:21:19;;;;;;;9.98;4.45;;;18.80;99.90;;;;;;4990264;28;20438;-62
2023/10/03 07:23:45;;;;;;;12.63;4.93;;;18.70;99.90;;;;;;4991048;28;20395;-61
2023/10/03 07:26:12;;;;;;;9.98;4.30;;;18.70;99.90;;;;;;4990835;28;20387;-60
2023/10/03 07:28:39;;;;;;;12.35;5.35;;;18.70;99.90;;;;;;4990795;28;20050;-62
2023/10/03 07:31:10;;;;;;;13.45;5.18;;;18.80;99.90;;;;;;4990776;28;20043;-62
2023/10/03 07:33:40;;;;;;;10.13;4.85;;;18.70;99.90;;;;;;4990751;28;20518;-62
2023/10/03 07:36:07;;;;;;;10.55;4.88;;;18.80;99.90;;;;;;4991130;28;20118;-61
2023/10/03 07:38:33;;;;;;;9.15;4.63;;;18.70;99.90;;;;;;4992966;28;20116;-60
2023/10/03 07:41:04;;;;;;;11.43;4.82;;;18.70;99.90;;;;;;5010144;28;20148;-61
2023/10/03 07:43:30;;;;;;;;;;;18.70;99.90;;;;;;4992595;28;20500;-62
2023/10/03 07:45:57;;;;;;;13.10;5.25;;;18.60;99.90;;;;;;4990807;28;20306;-61
2023/10/03 07:48:23;;;;;;;12.90;5.38;;;18.60;99.90;;;;;;4991010;28;20121;-62
2023/10/03 07:50:50;;;;;;;11.00;5.15;;;18.60;99.90;;;;;;4990683;28;20054;-62
2023/10/03 07:53:17;;;;;;;8.52;4.88;;;18.40;99.90;;;;;;5007212;28;20053;-63
2023/10/03 07:55:44;;;;;;;11.30;5.20;;;18.20;99.90;;;;;;5014576;28;20042;-62
2023/10/03 07:58:14;;;;;;;15.05;6.43;;;18.20;99.90;;;;;;5014654;28;20046;-60
2023/10/03 08:00:44;;;;;;;10.27;4.47;;;18.00;99.90;;;;;;5013756;28;20557;-61
2023/10/03 08:03:11;;;;;;;9.80;3.90;;;18.10;99.90;;;;;;4999360;28;20419;-61
2023/10/03 08:05:39;;;;;;;10.10;3.60;;;17.90;99.90;;;;;;4995012;28;20417;-61
2023/10/03 08:08:05;;;;;;;13.30;4.07;;;17.60;99.90;;;;;;4995406;28;20043;-61
2023/10/03 08:10:32;;;;;;;12.20;3.75;;;17.50;99.90;;;;;;4994366;28;20064;-62
2023/10/03 08:12:59;;;;;;;17.23;4.97;;;17.60;99.90;;;;;;5007510;28;20352;-59
2023/10/03 08:15:31;;;;;;;12.90;3.92;;;17.60;99.90;;;;;;5013707;28;20402;-62
2023/10/03 08:17:58;;;;;;;10.43;3.40;;;17.60;99.90;;;;;;5014363;28;20112;-60
2023/10/03 08:20:27;;;;;;;9.27;3.70;;;17.60;99.90;;;;;;5013376;28;20049;-59
2023/10/03 08:22:53;;;;;;;10.85;3.30;;;17.60;99.90;;;;;;5001538;28;20367;-60
2023/10/03 08:25:22;;;;;;;10.02;3.50;;;17.50;99.90;;;;;;4994248;28;20069;-62
2023/10/03 08:27:50;;;;;;;6.90;2.78;;;17.50;99.90;;;;;;4994197;28;20436;-61
2023/10/03 08:30:27;;;;;;;8.90;2.83;;;17.30;99.90;;;;;;4994044;28;20057;-62
2023/10/03 08:32:55;;;;;;;7.10;2.40;;;17.30;99.90;;;;;;5006437;28;20068;-61
2023/10/03 08:35:34;;;;;;;10.70;3.13;;;17.40;99.90;;;;;;4996505;28;20046;-62
2023/10/03 08:38:05;;;;;;;8.35;2.35;;;17.30;99.90;;;;;;5013541;28;20050;-59
2023/10/03 08:40:36;;;;;;;12.57;2.88;;;17.30;99.90;;;;;;5012548;28;20460;-61
2023/10/03 08:43:05;;;;;;;6.20;2.40;;;17.20;99.90;;;;;;4999412;28;20046;-62
2023/10/03 08:45:37;;;;;;;8.38;2.17;;;17.30;99.90;;;;;;4994394;28;20100;-62
2023/10/03 08:48:05;;;;;;;8.57;2.20;;;17.30;99.90;;;;;;4994299;28;20046;-62
2023/10/03 08:50:53;;;;;;;8.48;1.95;;;17.20;99.90;;;;;;4993620;28;20084;-61
2023/10/03 08:53:27;;;;;;;4.78;1.65;;;17.30;99.90;;;;;;5009525;28;20371;-62
2023/10/03 08:56:05;;;;;;;4.05;1.75;;;17.30;99.90;;;;;;5013378;28;20050;-62
2023/10/03 08:58:32;;;;;;;4.40;1.70;;;17.20;99.90;;;;;;5013415;28;20053;-61
2023/10/03 09:00:58;;;;;;;6.47;1.65;;;17.20;99.90;;;;;;5012876;28;20452;-60
2023/10/03 09:03:29;;;;;;;5.90;1.65;;;17.20;99.90;;;;;;4996580;28;20050;-62
2023/10/03 09:05:59;;;;;;;3.22;1.23;;;17.20;99.90;;;;;;4993457;28;20050;-62
2023/10/03 09:08:26;;;;;;;5.80;1.40;;;17.10;99.90;;;;;;4976802;28;20050;-62
2023/10/03 09:10:52;;;;;;;5.57;1.60;;;17.10;99.90;;;;;;4993293;28;20050;-62
2023/10/03 09:13:24;;;;;;;3.95;2.08;;;17.10;99.90;;;;;;5009280;28;20057;-61
2023/10/03 09:16:02;;;;;;;5.00;1.50;;;17.10;99.90;;;;;;5013324;28;20054;-62
2023/10/03 09:18:40;;;;;;;;;;;16.90;99.90;;;;;;5013543;28;20058;-63
2023/10/03 09:21:15;;;;;;;4.32;1.10;;;16.60;99.90;;;;;;5012796;28;19925;-62
2023/10/03 09:24:10;;;;;;;2.50;1.13;;;16.50;99.90;;;;;;4976608;28;20050;-62
2023/10/03 09:26:50;;;;;;;4.13;1.40;;;16.40;99.90;;;;;;4993695;28;20057;-62
2023/10/03 09:29:31;;;;;;;3.92;1.33;;;16.50;99.90;;;;;;4993173;28;20046;-62
2023/10/03 09:31:59;;;;;;;4.20;1.45;;;16.50;99.90;;;;;;4997027;28;20090;-62
2023/10/03 09:34:32;;;;;;;4.47;1.50;;;16.50;99.90;;;;;;5012875;28;20042;-62
2023/10/03 09:37:05;;;;;;;6.63;1.35;;;16.50;99.90;;;;;;5012477;28;20438;-61
2023/10/03 09:39:39;;;;;;;4.53;1.23;;;16.50;99.90;;;;;;5012161;28;20347;-62
2023/10/03 09:42:16;;;;;;;2.60;1.15;;;16.50;99.90;;;;;;5006317;28;20081;-61
2023/10/03 09:44:48;;;;;;;6.75;2.05;;;16.60;99.90;;;;;;4993103;28;20042;-61
2023/10/03 09:47:19;;;;;;;5.18;1.40;;;16.50;99.90;;;;;;4992814;28;20057;-61
2023/10/03 09:49:47;;;;;;;4.85;1.40;;;16.50;99.90;;;;;;4992699;28;20050;-62
2023/10/03 09:52:22;;;;;;;5.03;1.80;;;16.60;99.90;;;;;;4998837;28;20050;-62
2023/10/03 09:54:59;;;;;;;3.25;1.30;;;16.60;99.90;;;;;;5012615;28;20064;-60
2023/10/03 09:57:29;;;;;;;4.70;1.45;;;16.70;99.90;;;;;;5012606;28;20077;-62
2023/10/03 09:59:56;;;;;;;4.30;1.35;;;16.70;99.90;;;;;;5011813;28;20050;-62
2023/10/03 10:02:30;;;;;;;5.47;1.63;;;16.70;99.90;;;;;;5003101;28;20313;-61
2023/10/03 10:05:21;;;;;;;7.97;2.00;;;16.60;99.90;;;;;;4992451;28;20456;-62
2023/10/03 10:08:08;;;;;;;6.97;1.88;;;16.60;99.90;;;;;;4992581;28;20043;-63
2023/10/03 10:10:36;;;;;;;6.10;1.77;;;16.70;99.90;;;;;;4992159;28;20065;-62
2023/10/03 10:13:14;;;;;;;3.83;1.33;;;16.50;99.90;;;;;;5005089;28;20359;-60
2023/10/03 10:16:07;;;;;;;6.25;2.38;;;16.30;99.90;;;;;;5011638;28;20104;-62
2023/10/03 10:18:55;;;;;;;6.97;2.00;;;16.20;99.90;;;;;;5011958;28;20046;-61
2023/10/03 10:21:32;;;;;;;7.13;1.70;;;16.20;99.90;;;;;;5011275;28;20414;-62
2023/10/03 10:24:15;;;;;;;6.65;2.70;;;16.20;99.90;;;;;;4972659;28;20051;-61
2023/10/03 10:26:42;;;;;;;11.05;3.58;;;16.20;99.90;;;;;;4972536;28;20050;-62
2023/10/03 10:29:09;;;;;;;6.35;2.35;;;16.10;99.90;;;;;;4972568;28;20046;-62
2023/10/03 10:31:44;;;;;;;2.60;1.27;;;16.00;99.90;;;;;;4974875;28;20062;-62
2023/10/03 10:34:20;;;;;;;3.03;1.30;;;16.00;99.90;;;;;;5011710;28;20050;-61
2023/10/03 10:37:04;;;;;;;2.72;1.15;;;16.00;99.90;;;;;;5011551;28;20046;-60
2023/10/03 10:43:00;;;;;;;4.25;1.33;;;16.20;99.90;;;;;;5001676;28;20337;-62
2023/10/03 10:45:41;;;;;;;4.63;1.48;;;16.30;99.90;;;;;;4992105;28;20061;-61
2023/10/03 10:48:08;;;;;;;5.82;1.80;;;16.10;99.90;;;;;;4992040;28;20050;-62
2023/10/03 10:51:02;;;;;;;3.28;1.20;;;16.10;99.90;;;;;;4991805;28;20058;-61
2023/10/03 10:53:37;;;;;;;2.53;1.30;;;16.10;99.90;;;;;;5007857;28;20058;-62
2023/10/03 10:56:08;;;;;;;4.03;1.42;;;16.00;99.90;;;;;;5011355;28;20390;-62
2023/10/03 10:58:50;;;;;;;5.35;1.38;;;16.10;99.90;;;;;;5011121;28;20489;-62
2023/10/03 11:01:18;;;;;;;3.05;1.27;;;16.10;99.90;;;;;;5011155;28;20046;-61
2023/10/03 11:03:45;;;;;;;4.65;1.48;;;16.20;99.90;;;;;;4992607;28;20053;-62
2023/10/03 11:06:19;;;;;;;3.28;1.48;;;16.30;99.90;;;;;;4991936;28;20042;-60
2023/10/03 11:08:47;;;;;;;4.22;1.30;;;16.50;99.90;;;;;;4991245;28;20552;-61
2023/10/03 11:11:14;;;;;;;4.82;1.50;;;16.50;99.90;;;;;;4991071;28;20061;-62
2023/10/03 11:13:50;;;;;;;3.30;1.20;;;16.50;99.90;;;;;;5008945;28;20046;-62
2023/10/03 11:16:25;;;;;;;3.22;1.60;;;16.40;99.90;;;;;;5011011;28;20057;-62
2023/10/03 11:18:56;;;;;;;7.40;2.38;;;16.30;99.90;;;;;;5011109;28;20111;-62
2023/10/03 11:21:23;;;;;;;4.57;1.65;;;16.00;99.90;;;;;;5010332;28;20115;-62
2023/10/03 11:24:11;;;;;;;6.75;2.50;;;15.80;99.90;;;;;;4991787;28;20056;-59
2023/10/03 11:26:54;;;;;;;5.40;2.38;;;15.70;99.90;;;;;;4991176;28;20054;-62
2023/10/03 11:29:45;;;;;;;5.95;2.63;;;15.50;99.90;;;;;;4973691;28;20387;-62
2023/10/03 11:32:25;;;;;;;6.60;2.70;;;15.50;99.90;;;;;;4996383;28;20057;-62
2023/10/03 11:34:53;;;;;;;7.45;2.53;;;15.30;99.90;;;;;;5010633;28;20046;-61
2023/10/03 11:37:36;;;;;;;8.38;2.65;;;15.30;99.90;;;;;;5010558;28;20486;-61
2023/10/03 11:40:11;;;;;;;8.20;2.55;;;15.40;99.90;;;;;;5009582;28;20127;-61
2023/10/03 11:42:54;;;;;;;6.45;2.30;;;15.30;99.90;;;;;;5001708;28;20109;-60
2023/10/03 11:45:28;;;;;;;7.90;2.65;;;15.40;99.90;;;;;;4990815;28;20051;-62
2023/10/03 11:48:08;;;;;;;8.25;2.65;;;15.50;99.90;;;;;;4990978;28;20156;-60
2023/10/03 11:50:36;;;;;;;9.15;2.50;;;15.50;99.90;;;;;;4990708;28;20050;-62
2023/10/03 11:53:04;;;;;;;6.55;2.83;;;15.60;99.90;;;;;;4998749;28;20054;-61
2023/10/03 11:55:36;;;;;;;6.45;2.97;;;15.60;99.90;;;;;;4990857;28;20054;-62
2023/10/03 11:58:05;;;;;;;7.90;2.65;;;15.80;99.90;;;;;;4991171;28;20119;-62
2023/10/03 12:00:32;;;;;;;9.43;2.70;;;15.90;99.90;;;;;;4990245;28;20065;-63
2023/10/03 12:02:59;;;;;;;6.90;2.50;;;15.90;99.90;;;;;;5002445;28;20053;-62
2023/10/03 12:05:27;;;;;;;6.47;2.53;;;15.90;99.90;;;;;;5010342;28;20046;-61
2023/10/03 12:07:56;;;;;;;5.97;2.38;;;15.90;99.90;;;;;;5009897;28;20425;-61
2023/10/03 12:10:30;;;;;;;9.05;3.13;;;15.90;99.90;;;;;;5009908;28;20103;-62
2023/10/03 12:12:56;;;;;;;7.30;2.55;;;15.80;99.90;;;;;;4998845;28;20062;-62
2023/10/03 12:15:24;;;;;;;6.30;2.55;;;15.70;99.90;;;;;;4990737;28;20050;-62
2023/10/03 12:17:51;;;;;;;8.40;2.95;;;15.70;99.90;;;;;;4990806;28;20054;-62
2023/10/03 12:20:19;;;;;;;5.65;2.13;;;15.80;99.90;;;;;;4989948;28;20047;-61
2023/10/03 12:22:50;;;;;;;7.82;2.88;;;15.70;99.90;;;;;;4999792;28;20498;-62
2023/10/03 12:25:18;;;;;;;;;;;15.80;99.90;;;;;;4993431;28;20455;-61
2023/10/03 12:27:44;;;;;;;6.70;2.67;;;15.70;99.90;;;;;;5010142;28;19926;-61
2023/10/03 12:30:14;;;;;;;7.22;3.50;;;15.80;99.90;;;;;;5009621;28;20054;-62
2023/10/03 12:32:43;;;;;;;7.22;3.00;;;15.90;99.90;;;;;;5001184;28;20149;-63
2023/10/03 12:35:10;;;;;;;7.75;2.83;;;15.90;99.90;;;;;;4990826;28;20053;-62
2023/10/03 12:37:37;;;;;;;7.65;3.17;;;15.90;99.90;;;;;;4990663;28;20054;-61
2023/10/03 12:40:08;;;;;;;7.80;2.65;;;15.90;99.90;;;;;;5004967;28;20063;-64
2023/10/03 12:42:35;;;;;;;10.80;2.60;;;15.80;99.90;;;;;;4995707;28;20054;-62
2023/10/03 12:45:03;;;;;;;10.15;2.67;;;15.80;99.90;;;;;;5013701;28;20108;-63
2023/10/03 12:47:35;;;;;;;8.57;2.70;;;15.90;99.90;;;;;;4996082;28;20065;-62
2023/10/03 12:50:02;;;;;;;5.68;2.60;;;15.90;99.90;;;;;;4995719;28;20370;-63
2023/10/03 12:52:29;;;;;;;9.05;3.22;;;15.80;99.90;;;;;;5012785;28;20538;-62
2023/10/03 12:54:56;;;;;;;7.65;2.60;;;15.90;99.90;;;;;;5012952;28;20454;-63
2023/10/03 12:57:23;;;;;;;6.40;2.47;;;16.10;99.90;;;;;;5013162;28;20054;-63